createdAt,value
2023-01-13T00:00:58.561Z,8.16
2023-01-13T00:05:01.827Z,8.19
2023-01-13T00:09:05.930Z,8.15
2023-01-13T00:13:09.081Z,8.16
2023-01-13T00:17:13.835Z,8.29
2023-01-13T00:21:18.733Z,7.98
2023-01-13T00:25:22.044Z,8.15
2023-01-13T00:29:25.135Z,8.16
2023-01-13T00:33:29.470Z,8.24
2023-01-13T00:37:32.658Z,8.10
2023-01-13T00:41:49.586Z,8.16
2023-01-13T00:45:52.880Z,8.10
2023-01-13T00:49:57.396Z,8.02
2023-01-13T00:54:00.718Z,8.10
2023-01-13T00:58:04.541Z,8.09
2023-01-13T01:02:07.816Z,7.98
2023-01-13T01:06:15.262Z,8.19
2023-01-13T01:10:19.052Z,8.12
2023-01-13T01:14:22.481Z,8.20
2023-01-13T01:18:25.647Z,7.95
2023-01-13T01:22:30.722Z,8.20
2023-01-13T01:26:34.092Z,8.21
2023-01-13T01:30:37.198Z,8.20
2023-01-13T01:34:40.362Z,8.08
2023-01-13T01:38:45.577Z,8.13
2023-01-13T01:43:06.219Z,8.14
2023-01-13T01:47:09.727Z,8.19
2023-01-13T01:51:14.927Z,7.92
2023-01-13T01:55:21.175Z,8.11
2023-01-13T01:59:25.423Z,8.10
2023-01-13T02:03:28.765Z,8.10
2023-01-13T02:07:33.578Z,8.29
2023-01-13T02:11:55.935Z,8.29
2023-01-13T02:16:02.198Z,8.12
2023-01-13T02:20:37.198Z,8.32
2023-01-13T02:24:56.848Z,8.27
2023-01-13T02:29:40.747Z,8.32
2023-01-13T02:33:55.584Z,8.30
2023-01-13T02:38:00.408Z,8.24
2023-01-13T02:42:25.394Z,8.30
2023-01-13T02:46:31.030Z,8.34
2023-01-13T02:50:38.706Z,8.41
2023-01-13T02:54:44.859Z,8.40
2023-01-13T02:58:49.071Z,8.32
2023-01-13T03:02:52.343Z,8.41
2023-01-13T03:07:03.734Z,8.47
2023-01-13T03:11:08.977Z,8.43
2023-01-13T03:15:19.358Z,8.36
2023-01-13T03:19:31.977Z,8.47
2023-01-13T03:23:39.406Z,8.49
2023-01-13T03:27:49.342Z,8.36
2023-01-13T03:31:57.013Z,8.25
2023-01-13T03:36:04.770Z,8.50
2023-01-13T03:40:14.195Z,8.57
2023-01-13T03:44:27.488Z,8.56
2023-01-13T03:48:33.075Z,8.37
2023-01-13T03:52:38.010Z,8.54
2023-01-13T03:56:44.536Z,8.48
2023-01-13T04:00:49.725Z,8.48
2023-01-13T04:04:56.925Z,8.29
2023-01-13T04:09:05.170Z,8.53
2023-01-13T04:13:12.181Z,8.47
2023-01-13T04:17:15.396Z,8.40
2023-01-13T04:21:18.622Z,8.40
2023-01-13T04:25:21.456Z,8.31
2023-01-13T04:29:26.440Z,8.51
2023-01-13T04:33:29.665Z,8.41
2023-01-13T04:37:32.738Z,8.32
2023-01-13T04:41:49.400Z,8.47
2023-01-13T04:45:54.822Z,7.34
2023-01-13T04:49:57.884Z,7.43
2023-01-13T04:54:01.168Z,7.60
2023-01-13T04:58:05.333Z,7.55
2023-01-13T05:02:10.198Z,7.36
2023-01-13T05:06:22.472Z,7.32
2023-01-13T05:10:25.733Z,7.28
2023-01-13T05:14:46.086Z,7.16
2023-01-13T05:18:51.329Z,7.30
2023-01-13T05:23:12.598Z,7.17
2023-01-13T05:27:15.647Z,7.11
2023-01-13T05:32:04.807Z,7.11
2023-01-13T05:36:10.893Z,6.94
2023-01-13T05:40:32.941Z,6.94
2023-01-13T05:44:36.151Z,6.94
2023-01-13T05:48:40.548Z,6.98
2023-01-13T05:52:45.172Z,6.89
2023-01-13T05:56:47.984Z,6.83
2023-01-13T06:00:51.219Z,6.85
2023-01-13T06:04:54.265Z,6.78
2023-01-13T06:09:09.226Z,6.64
2023-01-13T06:13:12.219Z,6.55
2023-01-13T06:17:17.812Z,6.67
2023-01-13T06:22:07.852Z,6.67
2023-01-13T06:26:15.998Z,6.59
2023-01-13T06:30:42.050Z,6.67
2023-01-13T06:34:56.192Z,6.50
2023-01-13T06:39:10.382Z,6.61
2023-01-13T06:43:18.136Z,6.46
2023-01-13T06:47:22.456Z,6.52
2023-01-13T06:51:25.459Z,6.47
2023-01-13T06:55:28.303Z,6.42
2023-01-13T06:59:34.530Z,6.55
2023-01-13T07:03:37.520Z,6.45
2023-01-13T07:07:40.876Z,6.65
2023-01-13T07:11:43.562Z,6.43
2023-01-13T07:15:56.531Z,6.28
2023-01-13T07:19:59.510Z,6.48
2023-01-13T07:24:02.378Z,6.56
2023-01-13T07:28:05.467Z,6.60
2023-01-13T07:32:10.158Z,6.64
2023-01-13T07:36:13.580Z,6.62
2023-01-13T07:40:17.106Z,6.53
2023-01-13T07:44:20.371Z,6.60
2023-01-13T07:48:24.577Z,6.62
2023-01-13T07:52:50.446Z,6.73
2023-01-13T07:56:53.153Z,6.76
2023-01-13T08:00:56.750Z,6.70
2023-01-13T08:05:01.053Z,6.61
2023-01-13T08:09:04.166Z,6.25
2023-01-13T08:13:20.383Z,6.41
2023-01-13T08:17:23.248Z,6.51
2023-01-13T08:21:27.796Z,6.44
2023-01-13T08:25:31.245Z,6.68
2023-01-13T08:29:34.044Z,6.62
2023-01-13T08:33:37.583Z,6.72
2023-01-13T08:37:42.176Z,6.89
2023-01-13T08:41:58.843Z,6.91
2023-01-13T08:46:04.777Z,6.99
2023-01-13T08:50:16.036Z,7.01
2023-01-13T08:54:21.189Z,7.03
2023-01-13T08:58:25.406Z,6.86
2023-01-13T09:02:29.077Z,6.81
2023-01-13T09:06:32.039Z,6.84
2023-01-13T09:10:37.220Z,6.82
2023-01-13T09:14:40.540Z,6.83
2023-01-13T09:18:43.374Z,6.85
2023-01-13T09:22:46.300Z,6.87
2023-01-13T09:26:51.821Z,7.11
2023-01-13T09:30:54.841Z,7.29
2023-01-13T09:35:03.984Z,7.20
2023-01-13T09:39:07.277Z,7.32
2023-01-13T09:43:36.281Z,7.22
2023-01-13T09:47:41.224Z,7.20
2023-01-13T09:51:46.124Z,7.01
2023-01-13T09:55:50.104Z,6.85
2023-01-13T09:59:54.427Z,7.13
2023-01-13T10:03:57.417Z,7.24
2023-01-13T10:08:05.557Z,7.44
2023-01-13T10:12:30.560Z,7.56
2023-01-13T10:16:43.351Z,7.65
2023-01-13T10:20:54.456Z,7.89
2023-01-13T10:25:09.706Z,7.93
2023-01-13T10:29:21.851Z,7.67
2023-01-13T10:33:28.592Z,7.80
2023-01-13T10:37:31.867Z,7.63
2023-01-13T10:41:36.404Z,7.88
2023-01-13T10:45:39.116Z,7.92
2023-01-13T10:49:45.173Z,8.10
2023-01-13T10:53:53.589Z,8.03
2023-01-13T10:57:56.448Z,8.16
2023-01-13T11:02:26.416Z,8.46
2023-01-13T11:06:34.278Z,8.31
2023-01-13T11:10:47.335Z,8.31
2023-01-13T11:14:50.815Z,7.81
2023-01-13T11:19:12.272Z,7.72
2023-01-13T11:23:22.979Z,7.88
2023-01-13T11:27:36.098Z,7.79
2023-01-13T11:31:42.942Z,8.22
2023-01-13T11:35:49.812Z,8.40
2023-01-13T11:39:58.392Z,8.06
2023-01-13T11:44:09.523Z,7.98
2023-01-13T11:48:16.647Z,7.79
2023-01-13T11:52:23.697Z,8.04
2023-01-13T11:56:42.986Z,7.56
2023-01-13T12:01:07.096Z,7.75
2023-01-13T12:05:16.072Z,7.78
2023-01-13T12:09:31.679Z,7.25
2023-01-13T12:13:46.613Z,7.03
2023-01-13T12:18:03.285Z,5.35
2023-01-13T12:24:47.853Z,5.91
2023-01-13T12:28:54.689Z,5.92
2023-01-13T12:33:08.919Z,5.99
2023-01-13T12:37:25.632Z,6.01
2023-01-13T12:42:00.042Z,6.00
2023-01-13T12:46:53.878Z,6.01
2023-01-13T12:51:07.804Z,6.14
2023-01-13T12:55:22.606Z,6.59
2023-01-13T12:59:43.071Z,6.81
2023-01-13T13:04:08.646Z,6.72
2023-01-13T13:08:20.677Z,6.91
2023-01-13T13:13:13.045Z,7.20
2023-01-13T13:17:44.239Z,7.44
2023-01-13T13:22:31.132Z,7.45
2023-01-13T13:26:47.805Z,7.52
2023-01-13T13:31:17.110Z,7.39
2023-01-13T13:35:33.897Z,7.52
2023-01-13T13:39:55.475Z,7.49
2023-01-13T13:44:20.036Z,7.49
2023-01-13T13:48:40.625Z,7.55
2023-01-13T13:52:54.457Z,7.32
2023-01-13T13:56:59.523Z,7.15
2023-01-13T14:01:06.433Z,7.06
2023-01-13T14:05:18.260Z,7.40
2023-01-13T14:09:33.489Z,7.53
2023-01-13T14:13:36.539Z,7.53
2023-01-13T14:17:40.561Z,7.54
2023-01-13T14:21:49.914Z,7.45
2023-01-13T14:25:55.343Z,7.49
2023-01-13T14:30:02.491Z,7.45
2023-01-13T14:34:31.046Z,7.41
2023-01-13T14:38:43.351Z,7.46
2023-01-13T14:43:33.673Z,7.53
2023-01-13T14:47:42.745Z,7.33
2023-01-13T14:51:52.413Z,7.31
2023-01-13T14:56:37.199Z,7.40
2023-01-13T15:00:43.257Z,7.42
2023-01-13T15:04:58.325Z,7.40
2023-01-13T15:09:13.512Z,7.32
2023-01-13T15:13:42.633Z,7.27
2023-01-13T15:17:51.764Z,6.98
2023-01-13T15:21:56.211Z,6.83
2023-01-13T15:26:01.976Z,6.82
2023-01-13T15:30:14.907Z,6.56
2023-01-13T15:34:29.749Z,6.55
2023-01-13T15:38:37.243Z,6.22
2023-01-13T15:42:58.280Z,6.54
2023-01-13T15:47:07.137Z,6.43
2023-01-13T15:51:16.976Z,6.23
2023-01-13T15:55:31.552Z,6.26
2023-01-13T15:59:41.703Z,6.14
2023-01-13T16:03:59.956Z,6.18
2023-01-13T16:08:03.917Z,6.19
2023-01-13T16:12:10.670Z,6.19
2023-01-13T16:16:21.047Z,6.06
2023-01-13T16:20:26.396Z,6.09
2023-01-13T16:24:30.562Z,6.13
2023-01-13T16:28:37.451Z,6.27
2023-01-13T16:32:41.183Z,6.15
2023-01-13T16:36:49.251Z,6.29
2023-01-13T16:40:52.889Z,6.33
2023-01-13T16:44:59.001Z,6.47
2023-01-13T16:49:11.695Z,6.55
2023-01-13T16:53:22.289Z,6.43
2023-01-13T16:57:25.314Z,6.50
2023-01-13T17:01:32.077Z,6.34
2023-01-13T17:05:47.230Z,6.33
2023-01-13T17:09:52.751Z,6.46
2023-01-13T17:13:59.331Z,6.24
2023-01-13T17:18:06.525Z,6.07
2023-01-13T17:22:09.908Z,5.81
2023-01-13T17:31:04.744Z,5.95
2023-01-13T17:35:14.999Z,5.77
2023-01-13T17:39:20.853Z,5.63
2023-01-13T17:43:27.662Z,5.66
2023-01-13T17:47:31.695Z,5.63
2023-01-13T17:51:37.458Z,5.58
2023-01-13T17:55:46.091Z,5.65
2023-01-13T17:59:50.502Z,5.66
2023-01-13T18:03:57.073Z,5.63
2023-01-13T18:08:17.603Z,5.63
2023-01-13T18:12:21.640Z,5.47
2023-01-13T18:16:30.395Z,5.25
2023-01-13T18:20:54.072Z,5.28
2023-01-13T18:25:16.649Z,5.34
2023-01-13T18:29:38.209Z,5.31
2023-01-13T18:33:42.318Z,5.52
2023-01-13T18:37:56.661Z,5.65
2023-01-13T18:42:20.221Z,5.79
2023-01-13T18:46:24.660Z,5.75
2023-01-13T18:50:31.951Z,5.75
2023-01-13T18:54:36.863Z,5.67
2023-01-13T18:58:50.123Z,5.63
2023-01-13T19:07:12.970Z,5.63
2023-01-13T19:11:20.493Z,5.52
2023-01-13T19:15:25.907Z,5.63
2023-01-13T19:19:30.760Z,5.54
2023-01-13T19:23:35.017Z,5.51
2023-01-13T19:27:44.791Z,5.53
2023-01-13T19:31:53.671Z,5.55
2023-01-13T19:36:02.366Z,5.58
2023-01-13T19:40:09.511Z,5.71
2023-01-13T19:44:39.913Z,5.64
2023-01-13T19:49:00.006Z,5.82
2023-01-13T19:53:04.292Z,5.81
2023-01-13T19:57:08.733Z,5.75
2023-01-13T20:01:22.369Z,5.77
2023-01-13T20:05:32.043Z,5.77
2023-01-13T20:09:51.692Z,5.74
2023-01-13T20:13:56.618Z,5.82
2023-01-13T20:18:02.885Z,5.92
2023-01-13T20:22:11.451Z,5.92
2023-01-13T20:26:25.714Z,5.83
2023-01-13T20:30:42.148Z,5.86
2023-01-13T20:34:54.997Z,5.82
2023-01-13T20:39:12.056Z,5.88
2023-01-13T20:43:26.360Z,5.90
2023-01-13T20:48:17.982Z,5.84
2023-01-13T20:52:32.511Z,5.86
2023-01-13T20:56:44.040Z,5.97
2023-01-13T21:00:48.491Z,5.90
2023-01-13T21:04:52.159Z,5.83
2023-01-13T21:08:57.630Z,5.88
2023-01-13T21:13:23.119Z,5.89
2023-01-13T21:17:44.864Z,5.75
2023-01-13T21:21:49.136Z,5.79
2023-01-13T21:25:53.946Z,5.83
2023-01-13T21:29:58.881Z,5.81
2023-01-13T21:34:32.188Z,5.77
2023-01-13T21:38:36.898Z,5.75
2023-01-13T21:42:57.969Z,5.75
2023-01-13T21:47:23.859Z,5.76
2023-01-13T21:51:47.973Z,5.73
2023-01-13T21:56:02.512Z,5.73
2023-01-13T22:00:10.948Z,5.73
2023-01-13T22:04:22.547Z,5.76
2023-01-13T22:08:29.006Z,5.77
2023-01-13T22:12:33.751Z,5.75
2023-01-13T22:16:42.354Z,5.78
2023-01-13T22:21:00.564Z,5.71
2023-01-13T22:25:07.133Z,5.67
2023-01-13T22:29:11.142Z,5.75
2023-01-13T22:33:15.329Z,5.82
2023-01-13T22:37:23.715Z,5.81
2023-01-13T22:41:39.197Z,5.86
2023-01-13T22:45:44.880Z,5.89
2023-01-13T22:49:53.499Z,5.78
2023-01-13T22:54:00.834Z,5.72
2023-01-13T22:58:05.030Z,5.70
2023-01-13T23:02:11.704Z,5.68
2023-01-13T23:06:16.569Z,5.81
2023-01-13T23:10:22.811Z,5.81
2023-01-13T23:14:33.073Z,5.79
2023-01-13T23:18:46.127Z,5.80
2023-01-13T23:22:50.927Z,5.73
2023-01-13T23:26:59.802Z,5.68
2023-01-13T23:31:12.496Z,5.69
2023-01-13T23:35:17.069Z,5.71
2023-01-13T23:39:21.287Z,5.70
2023-01-13T23:43:29.471Z,5.70
2023-01-13T23:47:47.286Z,5.64
2023-01-13T23:51:52.947Z,5.64
2023-01-13T23:55:58.620Z,5.65
